Time;durP1;ratioP1;P1;durP2;ratioP2;P2;SDS_P1;SDS_P2;PMS_P1;PMS_P2;Temp;Humidity;BMP_temperature;BMP_pressure;BME280_temperature;BME280_humidity;BME280_pressure;Samples;Min_cycle;Max_cycle;Signal;HPM_P1;HPM_P2
2022/08/19 00:00:11;;;;;;;54.43;38.60;;;18.60;99.90;;;;;;5012653;28;20432;-83
2022/08/19 00:02:36;;;;;;;53.30;40.67;;;18.70;99.90;;;;;;4994521;28;20479;-82
2022/08/19 00:05:04;;;;;;;55.07;40.67;;;18.80;99.90;;;;;;4994654;28;20436;-83
2022/08/19 00:07:29;;;;;;;63.27;39.47;;;18.80;99.90;;;;;;4994260;28;20213;-81
2022/08/19 00:09:55;;;;;;;67.93;41.53;;;18.80;99.90;;;;;;4978282;28;20442;-83
2022/08/19 00:12:21;;;;;;;56.90;39.60;;;18.90;99.90;;;;;;4994595;28;20201;-82
2022/08/19 00:14:47;;;;;;;48.30;36.27;;;18.80;99.90;;;;;;4994261;28;20427;-82
2022/08/19 00:17:12;;;;;;;49.03;34.07;;;18.90;99.90;;;;;;4978136;28;20199;-82
2022/08/19 00:19:38;;;;;;;54.63;36.90;;;18.90;99.90;;;;;;4977573;28;20230;-82
2022/08/19 00:22:05;;;;;;;53.07;37.00;;;18.80;99.90;;;;;;5011305;28;20237;-83
2022/08/19 00:24:31;;;;;;;56.70;38.80;;;18.80;99.90;;;;;;4977335;28;20811;-83
2022/08/19 00:26:57;;;;;;;42.17;31.07;;;18.80;99.90;;;;;;4977012;28;20463;-82
2022/08/19 00:29:24;;;;;;;59.17;36.87;;;18.60;99.90;;;;;;4993593;28;20952;-80
2022/08/19 00:31:54;;;;;;;54.03;37.93;;;18.60;99.90;;;;;;5011316;28;20901;-79
2022/08/19 00:34:20;;;;;;;58.07;38.53;;;18.70;99.90;;;;;;4994248;28;20420;-79
2022/08/19 00:36:46;;;;;;;53.23;36.03;;;18.70;99.90;;;;;;4993450;28;21107;-80
2022/08/19 00:39:12;;;;;;;51.23;36.17;;;18.60;99.90;;;;;;4993692;28;20620;-80
2022/08/19 00:41:38;;;;;;;50.17;36.23;;;18.60;99.90;;;;;;5010862;28;20206;-80
2022/08/19 00:44:12;;;;;;;51.07;36.20;;;18.60;99.90;;;;;;4992433;28;20416;-81
2022/08/19 00:46:41;;;;;;;55.20;35.90;;;18.40;99.90;;;;;;4994322;28;20892;-81
2022/08/19 00:49:35;;;;;;;57.27;37.07;;;18.50;99.90;;;;;;5011092;28;20423;-79
2022/08/19 00:52:08;;;;;;;55.17;36.43;;;18.40;99.90;;;;;;5003639;28;20456;-79
2022/08/19 00:54:36;;;;;;;54.20;36.87;;;18.30;99.90;;;;;;5010888;28;20412;-81
2022/08/19 00:57:05;;;;;;;48.40;35.20;;;18.40;99.90;;;;;;4976841;28;20435;-81
2022/08/19 00:59:34;;;;;;;45.90;35.37;;;18.40;99.90;;;;;;4976786;28;20454;-81
2022/08/19 01:02:00;;;;;;;60.87;36.90;;;18.60;99.90;;;;;;4993165;28;20883;-81
2022/08/19 01:04:25;;;;;;;52.03;36.50;;;18.60;99.90;;;;;;5010557;28;20436;-83
2022/08/19 01:06:51;;;;;;;60.70;37.37;;;18.60;99.90;;;;;;4992640;28;20701;-83
2022/08/19 01:09:17;;;;;;;49.50;35.00;;;18.60;99.90;;;;;;4976627;28;20558;-84
2022/08/19 01:11:44;;;;;;;44.17;32.83;;;18.60;99.90;;;;;;4976577;28;20238;-83
2022/08/19 01:14:11;;;;;;;47.37;34.40;;;18.60;99.90;;;;;;4992429;28;20198;-83
2022/08/19 01:16:39;;;;;;;52.90;36.50;;;18.60;99.90;;;;;;5010270;28;21078;-84
2022/08/19 01:19:25;;;;;;;55.57;36.37;;;18.50;99.90;;;;;;5010256;28;20857;-83
2022/08/19 01:22:01;;;;;;;52.27;36.20;;;18.50;99.90;;;;;;5009515;28;20448;-83
2022/08/19 01:24:27;;;;;;;52.70;34.93;;;18.60;99.90;;;;;;4992560;28;20460;-83
2022/08/19 01:26:53;;;;;;;65.73;38.50;;;18.50;99.90;;;;;;4976325;28;20496;-83
2022/08/19 01:29:18;;;;;;;47.57;33.50;;;18.50;99.90;;;;;;4975906;28;20189;-83
2022/08/19 01:31:44;;;;;;;56.97;35.70;;;18.50;99.90;;;;;;4992114;28;20443;-83
2022/08/19 01:34:10;;;;;;;45.27;32.37;;;18.50;99.90;;;;;;4975769;28;20181;-83
2022/08/19 01:36:45;;;;;;;50.97;34.30;;;18.50;99.90;;;;;;5009798;28;20195;-83
2022/08/19 01:39:14;;;;;;;53.10;34.30;;;18.50;99.90;;;;;;4992813;28;20621;-84
2022/08/19 01:41:40;;;;;;;47.20;34.23;;;18.50;99.90;;;;;;4991934;28;20470;-84
2022/08/19 01:44:07;;;;;;;51.50;33.30;;;18.40;99.90;;;;;;4991989;28;20458;-84
2022/08/19 01:46:34;;;;;;;56.00;34.87;;;18.40;99.90;;;;;;4991975;28;20177;-84
2022/08/19 01:49:01;;;;;;;46.70;33.10;;;18.40;99.90;;;;;;4991935;28;20458;-84
2022/08/19 01:51:27;;;;;;;47.03;32.87;;;18.40;99.90;;;;;;4991721;28;20543;-84
2022/08/19 01:53:53;;;;;;;46.63;33.87;;;18.40;99.90;;;;;;4975781;28;21029;-84
2022/08/19 01:56:19;;;;;;;47.03;35.40;;;18.40;99.90;;;;;;4975711;28;20437;-83
2022/08/19 01:58:53;;;;;;;51.77;34.37;;;18.50;99.90;;;;;;5009474;28;20207;-83
2022/08/19 02:01:18;;;;;;;62.23;35.77;;;18.50;99.90;;;;;;4991485;28;20541;-82
2022/08/19 02:03:44;;;;;;;63.13;39.23;;;18.40;99.90;;;;;;4975439;28;20985;-83
2022/08/19 02:06:10;;;;;;;61.20;36.87;;;18.40;99.90;;;;;;4975733;28;20643;-83
2022/08/19 02:08:38;;;;;;;57.00;36.57;;;18.40;99.90;;;;;;4991890;28;20458;-80
2022/08/19 02:11:05;;;;;;;52.97;34.87;;;18.40;99.90;;;;;;4991724;28;20935;-80
2022/08/19 02:13:31;;;;;;;55.23;34.97;;;18.40;99.90;;;;;;4992430;28;20945;-80
2022/08/19 02:15:57;;;;;;;50.73;33.80;;;18.40;99.90;;;;;;5010390;28;20582;-80
2022/08/19 02:18:23;;;;;;;54.77;33.63;;;18.30;99.90;;;;;;4975569;28;20872;-81
2022/08/19 02:20:49;;;;;;;50.40;32.00;;;18.20;99.90;;;;;;4991487;28;20431;-81
2022/08/19 02:23:16;;;;;;;47.93;33.50;;;18.30;99.90;;;;;;5009286;28;20840;-83
2022/08/19 02:25:44;;;;;;;42.73;29.90;;;18.40;99.90;;;;;;4991650;28;20857;-82
2022/08/19 02:28:11;;;;;;;50.07;32.80;;;18.30;99.90;;;;;;5008994;28;21181;-80
2022/08/19 02:30:38;;;;;;;55.77;35.30;;;18.30;99.90;;;;;;4991265;28;20470;-80
2022/08/19 02:33:04;;;;;;;48.70;32.90;;;18.30;99.90;;;;;;4991326;28;20457;-80
2022/08/19 02:35:30;;;;;;;52.47;35.00;;;18.30;99.90;;;;;;5009144;28;20993;-80
2022/08/19 02:40:40;;;;;;;56.87;36.27;;;18.30;99.90;;;;;;5009387;28;20510;-80
2022/08/19 02:43:08;;;;;;;52.97;34.10;;;18.30;99.90;;;;;;4991342;28;20525;-80
2022/08/19 02:45:40;;;;;;;61.33;34.97;;;18.20;99.90;;;;;;4991375;28;20213;-80
2022/08/19 02:48:05;;;;;;;52.43;33.77;;;18.10;99.90;;;;;;4991115;28;20487;-80
2022/08/19 02:50:32;;;;;;;49.63;31.60;;;18.10;99.90;;;;;;4991320;28;21071;-80
2022/08/19 02:52:58;;;;;;;52.53;34.70;;;18.00;99.90;;;;;;4974968;28;20721;-81
2022/08/19 02:55:23;;;;;;;53.73;34.60;;;18.00;99.90;;;;;;5008981;28;20495;-79
2022/08/19 02:57:49;;;;;;;65.10;36.60;;;18.00;99.90;;;;;;5008982;28;20931;-78
2022/08/19 03:00:15;;;;;;;52.63;33.80;;;18.00;99.90;;;;;;4975074;28;20536;-78
2022/08/19 03:02:41;;;;;;;51.67;33.20;;;17.90;99.90;;;;;;5008985;28;20270;-78
2022/08/19 03:05:09;;;;;;;58.27;35.80;;;17.90;99.90;;;;;;5009331;28;20435;-79
2022/08/19 03:07:35;;;;;;;62.97;33.60;;;17.80;99.90;;;;;;5012288;28;20236;-82
2022/08/19 03:10:01;;;;;;;62.80;35.87;;;17.80;99.90;;;;;;5012592;28;20415;-79
2022/08/19 03:12:27;;;;;;;61.70;35.60;;;17.80;99.90;;;;;;5012730;28;20450;-79
2022/08/19 03:14:52;;;;;;;54.53;32.90;;;17.80;99.90;;;;;;4995113;28;20194;-79
2022/08/19 03:17:19;;;;;;;50.20;32.27;;;18.00;99.90;;;;;;4994955;28;20654;-78
2022/08/19 03:19:44;;;;;;;61.97;36.20;;;18.00;99.90;;;;;;5012591;28;20185;-78
2022/08/19 03:22:10;;;;;;;54.27;34.67;;;18.10;99.90;;;;;;4994901;28;20456;-78
2022/08/19 03:24:37;;;;;;;64.90;36.53;;;18.10;99.90;;;;;;5012560;28;20217;-79
2022/08/19 03:27:04;;;;;;;71.47;34.50;;;18.20;99.90;;;;;;5012876;28;20463;-78
2022/08/19 03:29:31;;;;;;;61.73;35.70;;;18.20;99.90;;;;;;5013191;28;21139;-79
2022/08/19 03:32:03;;;;;;;66.67;37.73;;;18.20;99.90;;;;;;5013147;28;20483;-79
2022/08/19 03:34:31;;;;;;;57.77;35.60;;;18.10;99.90;;;;;;5012971;28;20410;-79
2022/08/19 03:37:00;;;;;;;61.50;34.37;;;18.20;99.90;;;;;;5013175;28;20456;-79
2022/08/19 03:39:27;;;;;;;62.27;35.53;;;18.10;99.90;;;;;;5012862;28;20450;-79
2022/08/19 03:41:56;;;;;;;65.30;38.33;;;18.00;99.90;;;;;;4978802;28;20456;-79
2022/08/19 03:44:23;;;;;;;65.80;36.60;;;18.00;99.90;;;;;;5013031;28;20433;-79
2022/08/19 03:46:51;;;;;;;57.07;34.93;;;18.10;99.90;;;;;;4995034;28;20908;-79
2022/08/19 03:49:17;;;;;;;60.97;34.20;;;18.00;99.90;;;;;;5012780;28;20455;-79
2022/08/19 03:51:43;;;;;;;63.70;36.03;;;18.00;99.90;;;;;;4994567;28;20455;-79
2022/08/19 03:54:12;;;;;;;65.23;35.73;;;18.00;99.90;;;;;;5012305;28;20426;-78
2022/08/19 03:56:39;;;;;;;58.53;35.33;;;18.00;99.90;;;;;;5012532;28;20265;-79
2022/08/19 03:59:07;;;;;;;61.13;35.87;;;18.00;99.90;;;;;;4994418;28;20434;-79
2022/08/19 04:01:32;;;;;;;62.90;34.90;;;18.00;99.90;;;;;;4978724;28;20518;-79
2022/08/19 04:03:59;;;;;;;64.93;33.93;;;17.90;99.90;;;;;;4978549;28;20983;-79
2022/08/19 04:06:36;;;;;;;65.43;35.20;;;17.70;99.90;;;;;;4978257;28;20189;-80
2022/08/19 04:09:05;;;;;;;63.37;36.57;;;17.70;99.90;;;;;;4994210;28;20459;-80
2022/08/19 04:11:35;;;;;;;60.00;35.23;;;17.80;99.90;;;;;;5011727;28;20444;-80
2022/08/19 04:14:02;;;;;;;57.30;35.53;;;17.90;99.90;;;;;;4993780;28;20505;-79
2022/08/19 04:16:30;;;;;;;67.73;35.83;;;18.00;99.90;;;;;;4993711;28;20512;-78
2022/08/19 04:19:00;;;;;;;57.03;35.13;;;18.00;99.90;;;;;;5010852;28;20974;-78
2022/08/19 04:21:27;;;;;;;62.10;36.83;;;18.00;99.90;;;;;;5011096;28;20431;-78
2022/08/19 04:23:54;;;;;;;58.90;36.57;;;18.00;99.90;;;;;;5011871;28;20428;-79
2022/08/19 04:26:32;;;;;;;60.57;36.83;;;18.10;99.90;;;;;;5011976;28;20424;-79
2022/08/19 04:29:21;;;;;;;62.97;37.00;;;18.10;99.90;;;;;;5012396;28;20451;-79
2022/08/19 04:31:47;;;;;;;77.40;39.67;;;18.10;99.90;;;;;;5013006;28;20439;-79
2022/08/19 04:34:15;;;;;;;61.83;36.73;;;18.10;99.90;;;;;;4994038;28;20806;-79
2022/08/19 04:36:44;;;;;;;53.03;32.90;;;18.20;99.90;;;;;;5011339;28;20462;-79
2022/08/19 04:39:15;;;;;;;59.10;35.23;;;18.20;99.90;;;;;;5011325;28;20430;-79
2022/08/19 04:44:26;;;;;;;60.13;35.80;;;18.30;99.90;;;;;;5010800;28;20428;-79
2022/08/19 04:46:52;;;;;;;67.57;37.57;;;18.20;99.90;;;;;;4994439;28;20434;-79
2022/08/19 04:49:22;;;;;;;52.87;34.43;;;18.30;99.90;;;;;;4996654;28;20187;-79
2022/08/19 04:51:49;;;;;;;56.33;35.90;;;18.30;99.90;;;;;;5011438;28;20435;-80
2022/08/19 04:54:16;;;;;;;56.40;34.03;;;18.20;99.90;;;;;;4996049;28;20458;-79
2022/08/19 04:56:42;;;;;;;59.63;35.43;;;18.20;99.90;;;;;;5015288;28;20422;-79
2022/08/19 04:59:08;;;;;;;61.70;37.07;;;18.30;99.90;;;;;;4996174;28;20415;-79
2022/08/19 05:01:36;;;;;;;54.10;34.53;;;18.30;99.90;;;;;;4979999;28;20225;-79
2022/08/19 05:04:04;;;;;;;55.03;36.13;;;18.30;99.90;;;;;;4994834;28;20425;-79
2022/08/19 05:06:32;;;;;;;64.13;36.47;;;18.40;99.90;;;;;;5010612;28;20885;-79
2022/08/19 05:09:03;;;;;;;72.00;39.60;;;18.40;99.90;;;;;;5012657;28;20525;-79
2022/08/19 05:11:31;;;;;;;57.73;36.97;;;18.40;99.90;;;;;;4995830;28;20945;-79
2022/08/19 05:13:57;;;;;;;68.50;37.87;;;18.40;99.90;;;;;;4996264;28;20424;-79
2022/08/19 05:16:25;;;;;;;56.90;37.13;;;18.40;99.90;;;;;;5014376;28;20472;-79
2022/08/19 05:24:22;;;;;;;57.33;38.03;;;18.40;99.90;;;;;;5010242;28;20423;-80
2022/08/19 05:26:51;;;;;;;52.15;35.90;;;18.50;99.90;;;;;;5009699;28;20415;-80
2022/08/19 05:29:19;;;;;;;57.70;37.43;;;18.50;99.90;;;;;;5009585;28;20456;-79
2022/08/19 05:31:45;;;;;;;59.53;37.13;;;18.50;99.90;;;;;;4992902;28;20446;-79
2022/08/19 05:34:12;;;;;;;63.57;39.80;;;18.40;99.90;;;;;;4976305;28;20932;-79
2022/08/19 05:36:42;;;;;;;64.27;39.50;;;18.50;99.90;;;;;;4976191;28;20519;-79
2022/08/19 05:39:10;;;;;;;62.47;37.83;;;18.50;99.90;;;;;;4992810;28;20815;-80
2022/08/19 05:41:40;;;;;;;61.57;38.53;;;18.50;99.90;;;;;;4975981;28;20466;-79
2022/08/19 05:44:08;;;;;;;64.17;39.93;;;18.50;99.90;;;;;;4991708;28;21110;-79
2022/08/19 05:46:36;;;;;;;62.23;38.10;;;18.40;99.90;;;;;;5009445;28;20473;-79
2022/08/19 05:49:04;;;;;;;63.07;38.90;;;18.50;99.90;;;;;;5009357;28;20475;-80
2022/08/19 05:51:30;;;;;;;61.33;38.53;;;18.50;99.90;;;;;;4991155;28;20535;-80
2022/08/19 05:53:55;;;;;;;59.30;38.53;;;18.50;99.90;;;;;;4991327;28;20427;-79
2022/08/19 05:56:21;;;;;;;61.73;39.30;;;18.50;99.90;;;;;;4991319;28;20188;-79
2022/08/19 05:58:47;;;;;;;61.27;38.30;;;18.50;99.90;;;;;;5009682;28;20188;-79
2022/08/19 06:01:16;;;;;;;65.80;39.47;;;18.50;99.90;;;;;;4991460;28;20200;-79
2022/08/19 06:03:42;;;;;;;63.10;39.80;;;18.50;99.90;;;;;;4975351;28;20196;-80
2022/08/19 06:06:10;;;;;;;57.23;38.33;;;18.50;99.90;;;;;;5009025;28;20888;-79
2022/08/19 06:08:37;;;;;;;61.60;38.43;;;18.50;99.90;;;;;;5008805;28;20473;-79
2022/08/19 06:11:22;;;;;;;65.30;39.93;;;18.50;99.90;;;;;;4975193;28;20458;-79
2022/08/19 06:13:52;;;;;;;69.77;40.20;;;18.50;99.90;;;;;;5008938;28;20847;-80
2022/08/19 06:16:24;;;;;;;60.90;41.17;;;18.50;99.90;;;;;;4991876;28;20414;-79
2022/08/19 06:18:52;;;;;;;73.13;39.73;;;18.50;99.90;;;;;;4992171;28;20428;-78
2022/08/19 06:21:20;;;;;;;57.20;37.93;;;18.50;99.90;;;;;;5009055;28;20949;-79
2022/08/19 06:23:47;;;;;;;67.57;41.13;;;18.60;99.90;;;;;;4990866;28;20455;-79
2022/08/19 06:26:13;;;;;;;64.17;40.63;;;18.60;99.90;;;;;;4991141;28;20439;-79
2022/08/19 06:28:42;;;;;;;72.70;43.20;;;18.60;99.90;;;;;;4975462;28;20486;-79
2022/08/19 06:31:09;;;;;;;72.37;42.73;;;18.50;99.90;;;;;;4991227;28;20436;-79
2022/08/19 06:33:35;;;;;;;62.40;39.73;;;18.50;99.90;;;;;;5009280;28;20539;-79
2022/08/19 06:36:01;;;;;;;61.87;40.63;;;18.50;99.90;;;;;;4975431;28;20434;-79
2022/08/19 06:38:27;;;;;;;65.10;39.50;;;18.50;99.90;;;;;;5010193;28;20423;-79
2022/08/19 06:41:01;;;;;;;63.60;40.53;;;18.50;99.90;;;;;;5010153;28;20181;-79
2022/08/19 06:43:26;;;;;;;58.40;39.20;;;18.50;99.90;;;;;;5014048;28;20571;-79
2022/08/19 06:45:52;;;;;;;65.83;39.07;;;18.50;99.90;;;;;;5013217;28;20481;-79
2022/08/19 06:48:18;;;;;;;66.23;41.50;;;18.50;99.90;;;;;;4994946;28;20258;-79
2022/08/19 06:50:43;;;;;;;71.07;43.50;;;18.50;99.90;;;;;;4996169;28;20183;-79
2022/08/19 06:53:09;;;;;;;65.73;41.07;;;18.50;99.90;;;;;;4995659;28;21211;-78
2022/08/19 06:55:34;;;;;;;67.33;40.60;;;18.50;99.90;;;;;;4979301;28;20188;-79
2022/08/19 06:58:04;;;;;;;63.87;43.10;;;18.50;99.90;;;;;;5013346;28;20204;-79
2022/08/19 07:00:30;;;;;;;63.47;40.13;;;18.50;99.90;;;;;;4995118;28;20197;-79
2022/08/19 07:02:55;;;;;;;64.10;41.63;;;18.50;99.90;;;;;;5012828;28;20558;-78
2022/08/19 07:05:22;;;;;;;65.47;40.77;;;18.50;99.90;;;;;;5012221;28;20731;-78
2022/08/19 07:07:47;;;;;;;76.03;43.30;;;18.50;99.90;;;;;;5012569;28;20244;-79
2022/08/19 07:10:13;;;;;;;66.50;40.03;;;18.50;99.90;;;;;;5012439;28;20458;-79
2022/08/19 07:12:40;;;;;;;64.67;39.77;;;18.50;99.90;;;;;;4993951;28;20586;-76
2022/08/19 07:15:08;;;;;;;65.83;39.40;;;18.50;99.90;;;;;;4994308;28;20189;-76
2022/08/19 07:17:38;;;;;;;66.63;41.97;;;18.50;99.90;;;;;;5011790;28;20465;-76
2022/08/19 07:20:07;;;;;;;65.10;42.20;;;18.50;99.90;;;;;;4993829;28;20465;-76
2022/08/19 07:22:33;;;;;;;62.37;42.27;;;18.50;99.90;;;;;;5012016;28;20521;-76
2022/08/19 07:24:59;;;;;;;73.17;42.87;;;18.50;99.90;;;;;;4977476;28;20436;-76
2022/08/19 07:27:25;;;;;;;68.40;40.97;;;18.50;99.90;;;;;;4976814;28;20467;-76
2022/08/19 07:29:53;;;;;;;68.53;42.60;;;18.50;99.90;;;;;;4976675;28;20465;-77
2022/08/19 07:32:18;;;;;;;63.07;41.10;;;18.60;99.90;;;;;;5010788;28;20721;-76
2022/08/19 07:34:45;;;;;;;65.70;40.67;;;18.60;99.90;;;;;;4976762;28;20537;-76
2022/08/19 07:37:11;;;;;;;64.07;42.00;;;18.60;99.90;;;;;;5010446;28;20656;-76
2022/08/19 07:39:37;;;;;;;69.37;44.53;;;18.60;99.90;;;;;;5010770;28;20426;-76
2022/08/19 07:42:07;;;;;;;66.97;43.13;;;18.60;99.90;;;;;;5010550;28;20214;-76
2022/08/19 07:44:34;;;;;;;73.03;44.77;;;18.60;99.90;;;;;;5010364;28;20450;-76
2022/08/19 07:47:01;;;;;;;76.97;43.87;;;18.60;99.90;;;;;;5010463;28;20427;-76
2022/08/19 07:49:27;;;;;;;74.67;44.70;;;18.60;99.90;;;;;;5010493;28;20424;-77
2022/08/19 07:52:04;;;;;;;65.20;41.87;;;18.60;99.90;;;;;;5011086;28;20478;-77
2022/08/19 07:54:36;;;;;;;72.80;45.13;;;18.60;99.90;;;;;;4993866;28;20420;-77
2022/08/19 07:57:02;;;;;;;69.27;39.87;;;18.50;99.90;;;;;;5011095;28;20412;-77
2022/08/19 07:59:29;;;;;;;71.03;44.73;;;18.60;99.90;;;;;;4993455;28;20458;-77
2022/08/19 08:01:55;;;;;;;69.50;43.57;;;18.50;99.90;;;;;;5010788;28;20475;-77
2022/08/19 08:09:51;;;;;;;77.53;44.90;;;18.60;99.90;;;;;;5010797;28;20425;-77
2022/08/19 08:12:31;;;;;;;68.17;43.73;;;18.50;99.90;;;;;;4993082;28;20443;-77
2022/08/19 08:15:04;;;;;;;68.07;43.40;;;18.60;99.90;;;;;;5011112;28;20414;-77
2022/08/19 08:17:31;;;;;;;80.80;44.30;;;18.60;99.90;;;;;;5010992;28;20417;-77
2022/08/19 08:19:57;;;;;;;65.93;40.90;;;18.60;99.90;;;;;;5010939;28;20517;-77
2022/08/19 08:25:18;;;;;;;66.17;40.77;;;18.60;99.90;;;;;;5010914;28;20415;-77
2022/08/19 08:27:45;;;;;;;63.67;41.80;;;18.60;99.90;;;;;;5010413;28;20470;-77
2022/08/19 08:30:16;;;;;;;66.93;43.57;;;18.60;99.90;;;;;;4992743;28;20489;-77
2022/08/19 08:32:42;;;;;;;72.33;42.93;;;18.60;99.90;;;;;;5010392;28;20446;-77
2022/08/19 08:35:11;;;;;;;64.77;42.50;;;18.60;99.90;;;;;;5010378;28;20477;-77
2022/08/19 08:37:37;;;;;;;58.70;39.77;;;18.60;99.90;;;;;;5010267;28;20424;-77
2022/08/19 08:40:13;;;;;;;72.37;43.00;;;18.60;99.90;;;;;;4992342;28;20849;-77
2022/08/19 08:42:50;;;;;;;89.87;45.67;;;18.60;99.90;;;;;;4992417;28;20455;-77
2022/08/19 08:45:18;;;;;;;83.70;45.07;;;18.60;99.90;;;;;;4992470;28;20434;-77
2022/08/19 08:47:48;;;;;;;73.60;43.90;;;18.60;99.90;;;;;;5010038;28;20459;-77
2022/08/19 08:50:32;;;;;;;93.73;49.00;;;18.50;99.90;;;;;;4992206;28;20422;-76
2022/08/19 08:52:58;;;;;;;83.27;44.90;;;18.50;99.90;;;;;;4992136;28;20475;-76
2022/08/19 08:55:28;;;;;;;84.03;47.10;;;18.50;99.90;;;;;;5009951;28;20760;-76
2022/08/19 08:58:13;;;;;;;92.07;46.77;;;18.50;99.90;;;;;;4992191;28;21107;-77
2022/08/19 09:00:45;;;;;;;80.77;46.40;;;18.50;99.90;;;;;;5009887;28;20431;-76
2022/08/19 09:03:21;;;;;;;68.13;42.53;;;18.50;99.90;;;;;;5009713;28;20510;-76
2022/08/19 09:05:56;;;;;;;72.90;42.90;;;18.50;99.90;;;;;;4992390;28;20530;-76
2022/08/19 09:08:43;;;;;;;72.60;44.87;;;18.50;99.90;;;;;;5009494;28;20979;-76
2022/08/19 09:11:14;;;;;;;83.77;44.47;;;18.50;99.90;;;;;;5009519;28;20773;-76
2022/08/19 09:13:55;;;;;;;68.90;42.30;;;18.50;99.90;;;;;;5009147;28;20411;-76
2022/08/19 09:16:23;;;;;;;76.23;44.97;;;18.50;99.90;;;;;;4991387;28;20430;-76
2022/08/19 09:19:01;;;;;;;70.60;44.20;;;18.50;99.90;;;;;;5008811;28;20508;-77
2022/08/19 09:21:27;;;;;;;73.53;43.57;;;18.50;99.90;;;;;;4992065;28;20426;-76
2022/08/19 09:23:53;;;;;;;95.40;45.50;;;18.50;99.90;;;;;;5008631;28;20417;-76
2022/08/19 09:26:21;;;;;;;70.20;42.77;;;18.60;99.90;;;;;;5008456;28;20424;-76
2022/08/19 09:28:50;;;;;;;72.13;43.10;;;18.50;99.90;;;;;;5008288;28;20511;-76
2022/08/19 09:31:19;;;;;;;80.73;44.23;;;18.50;99.90;;;;;;5008246;28;20432;-77
2022/08/19 09:33:45;;;;;;;86.83;46.77;;;18.50;99.90;;;;;;5008412;28;20427;-76
2022/08/19 09:36:14;;;;;;;71.97;44.67;;;18.50;99.90;;;;;;5008683;28;21003;-76
2022/08/19 09:38:41;;;;;;;70.67;43.53;;;18.50;99.90;;;;;;5008147;28;20483;-76
2022/08/19 09:41:11;;;;;;;68.90;42.47;;;18.50;99.90;;;;;;5008331;28;20518;-76
2022/08/19 09:43:37;;;;;;;69.27;42.63;;;18.60;99.90;;;;;;4990301;28;20851;-76
2022/08/19 09:46:05;;;;;;;84.90;45.73;;;18.60;99.90;;;;;;5008373;28;20430;-76
2022/08/19 09:48:32;;;;;;;80.07;44.83;;;18.50;99.90;;;;;;5008114;28;20927;-76
2022/08/19 09:51:08;;;;;;;66.13;41.37;;;18.60;99.90;;;;;;5008057;28;20415;-76
2022/08/19 09:53:35;;;;;;;75.13;44.57;;;18.60;99.90;;;;;;5008132;28;20449;-76
2022/08/19 09:56:02;;;;;;;77.63;44.40;;;18.60;99.90;;;;;;5007985;28;20412;-76
2022/08/19 09:58:29;;;;;;;82.63;47.13;;;18.60;99.90;;;;;;5008175;28;20432;-76
2022/08/19 10:00:56;;;;;;;70.13;42.07;;;18.60;99.90;;;;;;5007949;28;20511;-76
2022/08/19 10:03:22;;;;;;;69.07;43.57;;;18.50;99.90;;;;;;5007917;28;20502;-76
2022/08/19 10:05:47;;;;;;;73.73;44.40;;;18.40;99.90;;;;;;5007945;28;20928;-76
2022/08/19 10:08:19;;;;;;;65.20;41.70;;;18.50;99.90;;;;;;5007853;28;20499;-76
2022/08/19 10:10:46;;;;;;;79.20;45.27;;;18.40;99.90;;;;;;5007817;28;20177;-76
2022/08/19 10:13:12;;;;;;;68.70;41.00;;;18.50;99.90;;;;;;5007744;28;20517;-76
2022/08/19 10:15:40;;;;;;;75.73;42.10;;;18.60;99.90;;;;;;5006964;28;20774;-76
2022/08/19 10:18:07;;;;;;;68.50;43.67;;;18.60;99.90;;;;;;5007711;28;20435;-76
2022/08/19 10:20:35;;;;;;;73.20;43.90;;;18.60;99.90;;;;;;5007570;28;20471;-76
2022/08/19 10:23:03;;;;;;;87.63;43.87;;;18.60;99.90;;;;;;5007567;28;20446;-76
2022/08/19 10:25:29;;;;;;;68.30;42.57;;;18.60;99.90;;;;;;4990339;28;20999;-76
2022/08/19 10:27:55;;;;;;;71.13;44.37;;;18.40;99.90;;;;;;5007393;28;20542;-76
2022/08/19 10:30:21;;;;;;;87.47;47.63;;;18.40;99.90;;;;;;5007543;28;20256;-76
2022/08/19 10:32:47;;;;;;;92.53;46.27;;;18.40;99.90;;;;;;5007597;28;20231;-76
2022/08/19 10:35:14;;;;;;;75.17;44.43;;;18.30;99.90;;;;;;5007719;28;20416;-76
2022/08/19 10:37:40;;;;;;;107.27;50.33;;;18.30;99.90;;;;;;4990159;28;20192;-76
2022/08/19 10:40:07;;;;;;;79.60;45.83;;;18.30;99.90;;;;;;5007487;28;20935;-76
2022/08/19 10:42:34;;;;;;;94.50;47.87;;;18.20;99.90;;;;;;4989941;28;20307;-76
2022/08/19 10:45:01;;;;;;;92.83;48.30;;;18.30;99.90;;;;;;5007497;28;21220;-76
2022/08/19 10:47:27;;;;;;;91.70;47.63;;;18.30;99.90;;;;;;5007766;28;21329;-76
2022/08/19 10:52:40;;;;;;;82.60;44.23;;;18.40;99.90;;;;;;5007971;28;20224;-76
2022/08/19 10:57:52;;;;;;;68.70;42.50;;;18.30;99.90;;;;;;5007196;28;20436;-76
2022/08/19 11:00:22;;;;;;;89.00;47.77;;;18.30;99.90;;;;;;5007336;28;20977;-76
2022/08/19 11:02:48;;;;;;;84.83;47.70;;;18.30;99.90;;;;;;5007188;28;20476;-76
2022/08/19 11:05:15;;;;;;;128.43;52.43;;;18.40;99.90;;;;;;5007204;28;20426;-76
2022/08/19 11:07:42;;;;;;;90.47;46.50;;;18.40;99.90;;;;;;5007206;28;20482;-76
2022/08/19 11:10:10;;;;;;;82.37;47.07;;;18.30;99.90;;;;;;5007361;28;20422;-76
2022/08/19 11:12:40;;;;;;;80.33;46.40;;;18.30;99.90;;;;;;4973103;28;20506;-76
2022/08/19 11:15:10;;;;;;;86.27;48.20;;;18.20;99.90;;;;;;5007258;28;20419;-76
2022/08/19 11:17:40;;;;;;;96.73;49.37;;;18.20;99.90;;;;;;5007330;28;20424;-76
2022/08/19 11:20:06;;;;;;;82.33;46.10;;;18.10;99.90;;;;;;5007178;28;20422;-76
2022/08/19 11:22:32;;;;;;;81.30;43.87;;;18.10;99.90;;;;;;5007062;28;20505;-76
2022/08/19 11:24:58;;;;;;;83.87;46.83;;;18.10;99.90;;;;;;4989276;28;20458;-76
2022/08/19 11:27:23;;;;;;;87.73;46.23;;;18.00;99.90;;;;;;5008464;28;20212;-76
2022/08/19 11:29:49;;;;;;;81.37;46.40;;;18.10;99.90;;;;;;4993147;28;20816;-76
2022/08/19 11:32:16;;;;;;;102.27;51.07;;;18.20;99.90;;;;;;4993050;28;20667;-76
2022/08/19 11:34:41;;;;;;;84.37;48.93;;;18.30;99.90;;;;;;5010808;28;20187;-76
2022/08/19 11:37:08;;;;;;;115.40;52.83;;;18.30;99.90;;;;;;5010769;28;20415;-76
2022/08/19 11:39:36;;;;;;;78.03;44.83;;;18.40;99.90;;;;;;5010727;28;20177;-76
2022/08/19 11:42:54;;;;;;;90.83;47.33;;;18.30;99.90;;;;;;5010315;28;20516;-76
2022/08/19 11:44:49;;;;;;;104.63;47.77;;;18.40;99.90;;;;;;5010372;28;20443;-75
2022/08/19 11:47:15;;;;;;;81.90;45.93;;;18.40;99.90;;;;;;4992844;28;20424;-76
2022/08/19 11:49:42;;;;;;;80.33;45.67;;;18.40;99.90;;;;;;4992541;28;20423;-76
2022/08/19 11:52:08;;;;;;;72.30;42.50;;;18.40;99.90;;;;;;5010044;28;20196;-75
2022/08/19 11:54:33;;;;;;;68.87;41.23;;;18.40;99.90;;;;;;4992622;28;20422;-76
2022/08/19 11:57:00;;;;;;;60.07;39.60;;;18.40;99.90;;;;;;5010383;28;20426;-76
2022/08/19 11:59:27;;;;;;;73.23;41.43;;;18.50;99.90;;;;;;4992336;28;20676;-76
2022/08/19 12:01:52;;;;;;;72.83;40.87;;;18.50;99.90;;;;;;4992462;28;20984;-76
2022/08/19 12:04:18;;;;;;;69.33;40.47;;;18.50;99.90;;;;;;4992507;28;20424;-76
2022/08/19 12:06:44;;;;;;;58.97;37.57;;;18.50;99.90;;;;;;5010732;28;20180;-75
2022/08/19 12:09:10;;;;;;;56.30;36.40;;;18.40;99.90;;;;;;5011127;28;20621;-76
2022/08/19 12:11:38;;;;;;;55.87;34.47;;;18.40;99.90;;;;;;5011547;28;20435;-75
2022/08/19 12:14:04;;;;;;;55.63;34.90;;;18.50;99.90;;;;;;4993592;28;20430;-78
2022/08/19 12:16:32;;;;;;;71.70;39.20;;;18.50;99.90;;;;;;5011575;28;20412;-79
2022/08/19 12:19:03;;;;;;;64.23;37.50;;;18.50;99.90;;;;;;4995984;28;20451;-76
2022/08/19 12:21:30;;;;;;;69.83;39.27;;;18.60;99.90;;;;;;4996940;28;21030;-77
2022/08/19 12:23:58;;;;;;;50.00;34.33;;;18.60;99.90;;;;;;4995359;28;20482;-76
2022/08/19 12:26:25;;;;;;;58.13;36.13;;;18.50;99.90;;;;;;4996812;28;20941;-79
2022/08/19 12:28:53;;;;;;;58.90;36.20;;;18.60;99.90;;;;;;5003457;28;20861;-79
2022/08/19 12:31:19;;;;;;;67.37;37.33;;;18.60;99.90;;;;;;4986994;28;20423;-79
2022/08/19 12:33:46;;;;;;;70.60;39.93;;;18.60;99.90;;;;;;5033771;28;20435;-80
2022/08/19 12:36:15;;;;;;;56.17;36.03;;;18.60;99.90;;;;;;5037227;28;20472;-82
2022/08/19 12:38:41;;;;;;;72.03;39.80;;;18.60;99.90;;;;;;5029631;28;20452;-79
2022/08/19 12:41:10;;;;;;;69.00;36.87;;;18.60;99.90;;;;;;5015693;28;20494;-81
2022/08/19 12:43:37;;;;;;;63.93;38.90;;;18.60;99.90;;;;;;4995870;28;20209;-78
2022/08/19 12:46:04;;;;;;;58.27;38.27;;;18.70;99.90;;;;;;5013556;28;20475;-79
2022/08/19 12:48:33;;;;;;;62.97;39.10;;;18.60;99.90;;;;;;4993848;28;20522;-79
2022/08/19 12:50:59;;;;;;;71.23;41.67;;;18.60;99.90;;;;;;4978980;28;20430;-80
2022/08/19 12:53:25;;;;;;;57.13;37.23;;;18.50;99.90;;;;;;5010808;28;20476;-80